Time;durP1;ratioP1;P1;durP2;ratioP2;P2;SDS_P1;SDS_P2;PMS_P1;PMS_P2;Temp;Humidity;BMP_temperature;BMP_pressure;BME280_temperature;BME280_humidity;BME280_pressure;Samples;Min_cycle;Max_cycle;Signal;HPM_P1;HPM_P2
2022/03/17 00:00:56;;;;;;;65.88;23.35;;;;;;;7.11;100.00;98732.41;5003988;28;20017;-55
2022/03/17 00:03:22;;;;;;;60.88;22.67;;;;;;;6.99;100.00;98731.75;5000438;28;20030;-55
2022/03/17 00:05:48;;;;;;;60.88;23.55;;;;;;;6.85;100.00;98739.72;5000780;28;20060;-55
2022/03/17 00:08:14;;;;;;;52.08;20.27;;;;;;;6.96;100.00;98732.63;5003381;28;20436;-54
2022/03/17 00:10:40;;;;;;;60.15;23.67;;;;;;;6.79;100.00;98742.41;5003198;28;20064;-55
2022/03/17 00:13:05;;;;;;;53.90;22.83;;;;;;;6.68;100.00;98737.34;5001434;28;20506;-56
2022/03/17 00:15:32;;;;;;;62.47;24.42;;;;;;;6.67;100.00;98736.50;5002291;28;20881;-55
2022/03/17 00:17:57;;;;;;;60.10;22.83;;;;;;;6.66;100.00;98737.38;5003020;28;20036;-53
2022/03/17 00:20:23;;;;;;;51.17;21.23;;;;;;;6.86;100.00;98731.06;5004428;28;20029;-53
2022/03/17 00:22:49;;;;;;;61.15;22.60;;;;;;;6.89;100.00;98741.38;5001795;28;20108;-55
2022/03/17 00:25:14;;;;;;;59.58;22.40;;;;;;;7.19;100.00;98736.63;5001003;28;20029;-55
2022/03/17 00:27:40;;;;;;;60.33;22.27;;;;;;;7.06;100.00;98739.41;5001028;28;20634;-55
2022/03/17 00:30:06;;;;;;;57.55;21.92;;;;;;;6.97;100.00;98738.69;5003141;28;20049;-54
2022/03/17 00:32:31;;;;;;;61.20;23.27;;;;;;;7.14;100.00;98727.16;5004771;28;20030;-55
2022/03/17 00:37:40;;;;;;;60.25;21.85;;;;;;;7.06;100.00;98731.63;4996951;28;20071;-55
2022/03/17 00:40:06;;;;;;;59.25;22.20;;;;;;;6.92;100.00;98736.16;4998635;28;20104;-55
2022/03/17 00:42:32;;;;;;;62.42;22.77;;;;;;;6.97;100.00;98726.56;5001055;28;20404;-53
2022/03/17 00:44:57;;;;;;;60.97;23.30;;;;;;;6.85;100.00;98737.09;4998550;28;20590;-54
2022/03/17 00:47:22;;;;;;;60.33;23.10;;;;;;;6.85;100.00;98731.94;5002435;28;21017;-55
2022/03/17 00:49:48;;;;;;;52.33;21.80;;;;;;;6.78;100.00;98727.69;5002404;28;20281;-54
2022/03/17 00:52:14;;;;;;;67.68;24.75;;;;;;;6.68;100.00;98737.34;4998948;28;20057;-53
2022/03/17 00:54:41;;;;;;;60.97;23.83;;;;;;;6.67;100.00;98723.53;5001798;28;20030;-54
2022/03/17 00:57:07;;;;;;;61.58;24.27;;;;;;;6.46;100.00;98721.22;5001558;28;20156;-54
2022/03/17 00:59:33;;;;;;;58.13;22.42;;;;;;;6.28;100.00;98717.97;5003218;28;20022;-54
2022/03/17 01:01:58;;;;;;;61.25;24.05;;;;;;;6.28;100.00;98712.78;5000546;28;20399;-54
2022/03/17 01:04:24;;;;;;;58.25;23.25;;;;;;;6.33;100.00;98721.38;5003953;28;20501;-55
2022/03/17 01:06:49;;;;;;;58.15;22.27;;;;;;;6.44;100.00;98723.81;4998277;28;20615;-55
2022/03/17 01:09:14;;;;;;;60.75;23.00;;;;;;;6.48;100.00;98727.25;4998128;28;20022;-54
2022/03/17 01:11:39;;;;;;;59.22;22.00;;;;;;;6.44;100.00;98722.97;5000254;28;20030;-54
2022/03/17 01:14:05;;;;;;;58.50;22.48;;;;;;;6.46;100.00;98713.44;5002320;28;20026;-54
2022/03/17 01:16:30;;;;;;;51.50;21.77;;;;;;;6.41;100.00;98712.66;5001979;28;20030;-53
2022/03/17 01:18:55;;;;;;;52.08;22.05;;;;;;;6.41;100.00;98707.47;5004114;28;20029;-55
2022/03/17 01:21:21;;;;;;;59.47;21.67;;;;;;;6.41;100.00;98710.06;5001078;28;20018;-53
2022/03/17 01:23:46;;;;;;;62.35;24.52;;;;;;;6.28;100.00;98712.78;5002266;28;20054;-54
2022/03/17 01:26:11;;;;;;;60.08;23.40;;;;;;;6.31;100.00;98699.81;5001880;28;20813;-55
2022/03/17 01:28:37;;;;;;;52.28;21.67;;;;;;;6.24;100.00;98698.16;4999954;28;20029;-53
2022/03/17 01:31:02;;;;;;;58.20;23.08;;;;;;;6.23;100.00;98693.00;4998717;28;20117;-53
2022/03/17 01:33:28;;;;;;;54.00;21.80;;;;;;;6.40;100.00;98700.59;4997643;28;20042;-55
2022/03/17 01:35:53;;;;;;;53.38;21.55;;;;;;;6.36;100.00;98689.41;5005196;28;20032;-55
2022/03/17 01:38:18;;;;;;;56.13;22.80;;;;;;;6.41;100.00;98689.31;5004306;28;20121;-53
2022/03/17 01:40:44;;;;;;;55.58;21.90;;;;;;;6.51;100.00;98688.34;5000356;28;20031;-53
2022/03/17 01:43:09;;;;;;;54.90;22.90;;;;;;;6.41;100.00;98692.75;5002348;28;20495;-53
2022/03/17 01:45:35;;;;;;;54.10;22.13;;;;;;;6.54;100.00;98696.94;5000318;28;20030;-54
2022/03/17 01:48:01;;;;;;;58.53;21.23;;;;;;;6.76;100.00;98691.41;5001805;28;20251;-52
2022/03/17 01:50:27;;;;;;;52.03;21.58;;;;;;;6.79;100.00;98690.53;5000658;28;20400;-53
2022/03/17 01:52:52;;;;;;;54.40;21.70;;;;;;;6.45;100.00;98684.09;5000406;28;20095;-56
2022/03/17 01:55:18;;;;;;;62.33;22.45;;;;;;;6.52;100.00;98690.88;5000499;28;20037;-56
2022/03/17 01:57:45;;;;;;;56.97;22.63;;;;;;;6.46;100.00;98679.75;5000970;28;20025;-55
2022/03/17 02:00:13;;;;;;;56.58;22.38;;;;;;;6.59;100.00;98668.34;5002148;28;20022;-55
2022/03/17 02:02:43;;;;;;;64.20;23.73;;;;;;;6.47;100.00;98671.09;5004872;28;20104;-54
2022/03/17 02:05:09;;;;;;;57.10;22.83;;;;;;;6.51;100.00;98677.97;5001793;28;20026;-56
2022/03/17 02:07:34;;;;;;;50.30;21.52;;;;;;;6.47;100.00;98682.34;5001569;28;20033;-54
2022/03/17 02:09:59;;;;;;;53.45;22.33;;;;;;;6.46;100.00;98669.38;5009156;28;20027;-55
2022/03/17 02:15:10;;;;;;;55.67;21.77;;;;;;;6.64;100.00;98679.50;5004310;28;20208;-55
2022/03/17 02:17:40;;;;;;;54.88;19.45;;;;;;;6.79;100.00;98681.00;5004596;28;20033;-55
2022/03/17 02:20:07;;;;;;;50.15;20.88;;;;;;;6.60;100.00;98677.84;5006760;28;20025;-55
2022/03/17 02:22:36;;;;;;;57.53;22.15;;;;;;;6.52;100.00;98664.97;5002343;28;20028;-55
2022/03/17 02:27:47;;;;;;;55.55;21.30;;;;;;;6.28;100.00;98660.97;5005275;28;20569;-56
2022/03/17 02:30:17;;;;;;;51.97;22.13;;;;;;;6.44;100.00;98671.16;5001116;28;20021;-53
2022/03/17 02:32:43;;;;;;;54.35;21.88;;;;;;;6.56;100.00;98660.59;5002091;28;20031;-54
2022/03/17 02:35:11;;;;;;;64.53;22.70;;;;;;;6.37;100.00;98653.06;5000032;28;20036;-55
2022/03/17 02:37:37;;;;;;;54.72;22.58;;;;;;;6.31;100.00;98655.75;5003150;28;20405;-55
2022/03/17 02:40:06;;;;;;;59.55;22.80;;;;;;;6.35;100.00;98647.06;5004651;28;20029;-54
2022/03/17 02:42:32;;;;;;;53.55;22.73;;;;;;;6.62;100.00;98651.91;5005747;28;20166;-54
2022/03/17 02:44:59;;;;;;;57.45;22.33;;;;;;;6.52;100.00;98654.59;5004356;28;20025;-56
2022/03/17 02:47:24;;;;;;;57.78;22.77;;;;;;;6.67;100.00;98653.53;5002593;28;20092;-53
2022/03/17 02:49:52;;;;;;;55.67;22.27;;;;;;;6.57;100.00;98651.94;5003896;28;20635;-54
2022/03/17 02:52:18;;;;;;;59.70;23.48;;;;;;;6.67;100.00;98657.84;5002654;28;20075;-57
2022/03/17 02:54:44;;;;;;;64.05;23.48;;;;;;;6.51;100.00;98657.22;5001896;28;20030;-57
2022/03/17 02:57:09;;;;;;;62.80;22.42;;;;;;;6.44;100.00;98645.22;5005187;28;20040;-57
2022/03/17 02:59:34;;;;;;;57.20;24.05;;;;;;;6.49;100.00;98651.22;5003500;28;20022;-57
2022/03/17 03:02:04;;;;;;;60.20;23.15;;;;;;;6.62;100.00;98655.34;5002680;28;20029;-56
2022/03/17 03:04:33;;;;;;;51.30;21.52;;;;;;;6.69;100.00;98659.56;5003055;28;20114;-55
2022/03/17 03:06:59;;;;;;;53.97;21.60;;;;;;;6.66;100.00;98657.00;5001261;28;20925;-53
2022/03/17 03:09:24;;;;;;;56.53;22.40;;;;;;;6.63;100.00;98662.22;5004598;28;20014;-54
2022/03/17 03:11:49;;;;;;;52.85;22.52;;;;;;;6.66;100.00;98663.94;5005583;28;20030;-54
2022/03/17 03:14:14;;;;;;;54.88;21.58;;;;;;;6.40;100.00;98664.31;5001512;28;20026;-55
2022/03/17 03:16:40;;;;;;;57.83;22.88;;;;;;;6.41;100.00;98656.47;5001385;28;20148;-54
2022/03/17 03:19:05;;;;;;;53.88;22.35;;;;;;;6.50;100.00;98658.94;5009141;28;20022;-54
2022/03/17 03:21:30;;;;;;;68.68;23.80;;;;;;;6.27;100.00;98658.44;5002533;28;20034;-55
2022/03/17 03:23:56;;;;;;;60.33;23.63;;;;;;;6.27;100.00;98648.06;5001956;28;20084;-55
2022/03/17 03:26:21;;;;;;;60.45;23.67;;;;;;;6.26;100.00;98649.78;5003023;28;20576;-53
2022/03/17 03:28:46;;;;;;;58.05;24.25;;;;;;;6.26;100.00;98657.53;5006170;28;20064;-55
2022/03/17 03:31:12;;;;;;;57.38;23.80;;;;;;;6.35;100.00;98660.00;5004156;28;20110;-55
2022/03/17 03:33:37;;;;;;;58.30;22.88;;;;;;;6.46;100.00;98664.22;5002141;28;20033;-55
2022/03/17 03:38:46;;;;;;;63.55;23.10;;;;;;;6.62;100.00;98663.13;5004952;28;20036;-55
2022/03/17 03:41:12;;;;;;;49.53;19.73;;;;;;;6.72;100.00;98679.38;5004214;28;20018;-54
2022/03/17 03:43:37;;;;;;;54.72;22.38;;;;;;;6.70;100.00;98683.75;5004550;28;20767;-55
2022/03/17 03:46:02;;;;;;;53.55;22.00;;;;;;;6.66;100.00;98682.06;4999994;28;20428;-56
2022/03/17 03:48:27;;;;;;;55.08;22.63;;;;;;;6.63;100.00;98685.56;5002872;28;20045;-55
2022/03/17 03:50:53;;;;;;;52.78;22.98;;;;;;;6.58;100.00;98682.19;4996275;28;21964;-54
2022/03/17 03:53:18;;;;;;;62.00;23.15;;;;;;;6.67;100.00;98695.03;4996988;28;20427;-57
2022/03/17 03:55:43;;;;;;;51.42;20.52;;;;;;;6.69;100.00;98698.44;5000268;28;20531;-55
2022/03/17 03:58:09;;;;;;;55.22;22.67;;;;;;;6.80;100.00;98694.81;5006994;28;20105;-55
2022/03/17 04:00:34;;;;;;;63.95;23.55;;;;;;;6.75;100.00;98706.13;5002276;28;20067;-55
2022/03/17 04:03:03;;;;;;;51.22;22.35;;;;;;;6.93;100.00;98706.75;5000907;28;20026;-55
2022/03/17 04:05:37;;;;;;;62.80;23.65;;;;;;;6.66;100.00;98719.22;5006043;28;20519;-54
2022/03/17 04:08:03;;;;;;;55.10;23.05;;;;;;;6.53;100.00;98721.13;5000693;28;20778;-54
2022/03/17 04:10:29;;;;;;;55.60;22.55;;;;;;;6.82;100.00;98729.38;4999273;28;20112;-54
2022/03/17 04:12:54;;;;;;;62.22;23.58;;;;;;;6.96;100.00;98727.44;5001153;28;20046;-55
2022/03/17 04:15:20;;;;;;;49.38;20.77;;;;;;;6.84;100.00;98738.00;5006436;28;20392;-55
2022/03/17 04:17:45;;;;;;;59.30;23.13;;;;;;;6.84;100.00;98736.25;5004944;28;20030;-55
2022/03/17 04:20:11;;;;;;;51.50;22.80;;;;;;;6.84;100.00;98744.03;5003256;28;20028;-55
2022/03/17 04:22:37;;;;;;;54.83;22.52;;;;;;;6.61;100.00;98746.94;5000668;28;20411;-55
2022/03/17 04:25:03;;;;;;;59.70;23.38;;;;;;;6.86;100.00;98746.63;5005025;28;20028;-56
2022/03/17 04:27:28;;;;;;;55.90;22.85;;;;;;;6.67;100.00;98746.00;5002739;28;20125;-55
2022/03/17 04:29:54;;;;;;;54.33;22.70;;;;;;;6.79;100.00;98750.19;4997882;28;20025;-56
2022/03/17 04:32:20;;;;;;;47.67;19.63;;;;;;;7.11;100.00;98745.38;5001723;28;20061;-56
2022/03/17 04:34:45;;;;;;;66.40;22.98;;;;;;;6.92;100.00;98762.09;5001018;28;20033;-56
2022/03/17 04:37:10;;;;;;;56.85;22.90;;;;;;;6.90;100.00;98750.88;5003560;28;20104;-57
2022/03/17 04:39:36;;;;;;;52.85;22.40;;;;;;;6.83;100.00;98747.50;5002999;28;20152;-55
2022/03/17 04:42:01;;;;;;;57.08;23.05;;;;;;;7.02;100.00;98748.13;5003772;28;20018;-56
2022/03/17 04:44:26;;;;;;;61.08;21.70;;;;;;;6.98;100.00;98745.56;5002799;28;20026;-56
2022/03/17 04:46:52;;;;;;;58.90;23.88;;;;;;;6.99;100.00;98755.09;4997084;28;20109;-54
2022/03/17 04:49:17;;;;;;;63.28;25.58;;;;;;;6.92;100.00;98762.94;5000847;28;20056;-54
2022/03/17 04:51:42;;;;;;;63.67;25.30;;;;;;;6.92;100.00;98760.34;5000387;28;20059;-57
2022/03/17 04:54:08;;;;;;;64.38;24.85;;;;;;;7.00;100.00;98754.19;5005146;28;20385;-53
2022/03/17 04:56:33;;;;;;;48.95;22.90;;;;;;;6.78;100.00;98764.00;4999162;28;20025;-58
2022/03/17 04:58:58;;;;;;;56.58;23.67;;;;;;;6.82;100.00;98763.06;5000298;28;20577;-53
2022/03/17 05:01:24;;;;;;;59.30;23.40;;;;;;;6.81;100.00;98769.16;5002174;28;20022;-53
2022/03/17 05:03:49;;;;;;;52.42;22.35;;;;;;;6.71;100.00;98773.63;5005421;28;20040;-55
2022/03/17 05:06:16;;;;;;;58.88;24.48;;;;;;;6.89;100.00;98769.91;4998961;28;20058;-53
2022/03/17 05:08:41;;;;;;;55.78;23.02;;;;;;;6.85;100.00;98766.50;4999207;28;20125;-54
2022/03/17 05:11:07;;;;;;;55.13;22.88;;;;;;;6.83;100.00;98768.25;5004149;28;20399;-53
2022/03/17 05:13:34;;;;;;;65.30;23.98;;;;;;;6.72;100.00;98770.97;5001982;28;20018;-54
2022/03/17 05:15:59;;;;;;;69.85;24.27;;;;;;;6.83;100.00;98778.63;5002766;28;20395;-59
2022/03/17 05:18:25;;;;;;;58.20;23.92;;;;;;;6.62;100.00;98769.41;5002967;28;20908;-55
2022/03/17 05:20:51;;;;;;;54.75;23.90;;;;;;;6.46;100.00;98770.47;5000551;28;20029;-55
2022/03/17 05:23:18;;;;;;;65.00;25.38;;;;;;;6.33;100.00;98768.00;4999710;28;20685;-54
2022/03/17 05:25:44;;;;;;;61.55;23.75;;;;;;;6.46;100.00;98773.06;4998763;28;20741;-55
2022/03/17 05:28:11;;;;;;;56.75;22.77;;;;;;;6.42;100.00;98776.56;5003842;28;20103;-55
2022/03/17 05:30:38;;;;;;;64.20;23.70;;;;;;;6.16;100.00;98777.72;5001523;28;20037;-53
2022/03/17 05:33:05;;;;;;;54.30;24.02;;;;;;;6.17;100.00;98774.22;5004113;28;20056;-53
2022/03/17 05:35:31;;;;;;;61.20;23.63;;;;;;;6.32;100.00;98783.56;4999110;28;20132;-55
2022/03/17 05:37:57;;;;;;;64.32;25.15;;;;;;;6.33;100.00;98780.97;5000642;28;20021;-55
2022/03/17 05:40:23;;;;;;;62.38;23.52;;;;;;;6.46;100.00;98786.88;5001609;28;20047;-54
2022/03/17 05:42:56;;;;;;;61.35;23.85;;;;;;;6.62;100.00;98790.13;5009922;28;20026;-56
2022/03/17 05:45:23;;;;;;;62.17;24.42;;;;;;;6.43;100.00;98793.81;5002223;28;20029;-59
2022/03/17 05:47:50;;;;;;;59.67;23.30;;;;;;;6.52;100.00;98793.72;5006274;28;20067;-53
2022/03/17 05:50:17;;;;;;;57.75;24.23;;;;;;;6.43;100.00;98789.47;5006314;28;20037;-53
2022/03/17 05:52:44;;;;;;;61.88;24.83;;;;;;;6.47;100.00;98790.31;5008318;28;20026;-54
2022/03/17 05:55:11;;;;;;;63.60;25.08;;;;;;;6.57;100.00;98799.69;5001729;28;20071;-54
2022/03/17 05:57:37;;;;;;;61.22;24.70;;;;;;;6.55;100.00;98799.72;5004681;28;20037;-55
2022/03/17 06:00:05;;;;;;;71.05;25.15;;;;;;;6.51;100.00;98794.59;4999838;28;20033;-55
2022/03/17 06:02:30;;;;;;;65.03;25.67;;;;;;;6.27;100.00;98799.19;5002986;28;20019;-54
2022/03/17 06:04:56;;;;;;;78.18;26.40;;;;;;;6.35;100.00;98802.53;4999592;28;20421;-55
2022/03/17 06:07:21;;;;;;;64.80;25.65;;;;;;;6.45;100.00;98807.59;5008962;28;20712;-55
2022/03/17 06:09:46;;;;;;;62.03;24.02;;;;;;;6.30;100.00;98809.50;5006204;28;20129;-56
2022/03/17 06:12:15;;;;;;;69.95;25.80;;;;;;;6.13;100.00;98809.66;5005483;28;20037;-54
2022/03/17 06:14:41;;;;;;;61.88;23.40;;;;;;;6.20;100.00;98810.47;5004281;28;20029;-56
2022/03/17 06:17:06;;;;;;;58.03;19.45;;;;;;;6.55;100.00;98814.41;5000815;28;20029;-55
2022/03/17 06:19:32;;;;;;;53.40;20.30;;;;;;;6.56;100.00;98816.13;5005622;28;20057;-55
2022/03/17 06:21:58;;;;;;;58.80;22.13;;;;;;;6.66;100.00;98822.91;5008416;28;20057;-55
2022/03/17 06:24:24;;;;;;;65.25;24.88;;;;;;;6.30;100.00;98819.84;5001889;28;20106;-55
2022/03/17 06:26:50;;;;;;;58.47;20.80;;;;;;;6.48;100.00;98818.81;5001880;28;20666;-55
2022/03/17 06:29:15;;;;;;;60.92;24.98;;;;;;;6.62;100.00;98815.22;5006032;28;20448;-55
2022/03/17 06:31:40;;;;;;;61.50;25.58;;;;;;;6.44;100.00;98824.06;5000660;28;20025;-57
2022/03/17 06:34:06;;;;;;;62.95;25.38;;;;;;;6.49;100.00;98824.88;5003806;28;20022;-55
2022/03/17 06:36:32;;;;;;;62.95;24.67;;;;;;;6.68;100.00;98830.69;5005516;28;20033;-55
2022/03/17 06:38:57;;;;;;;62.78;25.13;;;;;;;6.65;100.00;98828.97;5008408;28;20032;-54
2022/03/17 06:41:23;;;;;;;64.50;26.17;;;;;;;6.53;100.00;98826.53;5007043;28;20497;-54
2022/03/17 06:43:48;;;;;;;61.42;24.20;;;;;;;6.49;100.00;98827.47;5002306;28;20029;-53
2022/03/17 06:46:13;;;;;;;57.22;22.75;;;;;;;6.84;100.00;98836.56;5006096;28;20029;-55
2022/03/17 06:48:39;;;;;;;58.47;24.33;;;;;;;6.97;100.00;98832.91;5004975;28;20064;-55
2022/03/17 06:51:05;;;;;;;60.17;24.73;;;;;;;7.01;100.00;98834.59;5005553;28;20291;-54
2022/03/17 06:53:30;;;;;;;59.38;23.88;;;;;;;7.02;100.00;98831.13;5002110;28;20086;-54
2022/03/17 06:55:56;;;;;;;62.00;24.27;;;;;;;7.22;100.00;98830.81;4995319;28;20499;-54
2022/03/17 06:58:21;;;;;;;53.20;22.55;;;;;;;7.39;100.00;98835.78;5001035;28;20036;-56
2022/03/17 07:00:46;;;;;;;56.97;23.35;;;;;;;6.97;100.00;98843.28;5002556;28;20062;-54
2022/03/17 07:03:12;;;;;;;61.95;24.35;;;;;;;7.08;100.00;98840.56;5003033;28;20050;-55
2022/03/17 07:05:37;;;;;;;64.25;26.58;;;;;;;7.29;100.00;98839.38;5001743;28;20172;-56
2022/03/17 07:08:02;;;;;;;59.47;25.17;;;;;;;7.21;100.00;98839.50;5004145;28;20500;-54
2022/03/17 07:10:29;;;;;;;58.28;24.60;;;;;;;7.32;100.00;98839.34;5006928;28;20022;-55
2022/03/17 07:12:55;;;;;;;62.15;24.98;;;;;;;7.32;100.00;98834.16;5002689;28;20026;-54
2022/03/17 07:15:20;;;;;;;59.97;24.60;;;;;;;7.38;100.00;98843.59;5003271;28;20104;-54
2022/03/17 07:17:46;;;;;;;58.72;23.95;;;;;;;7.70;100.00;98846.56;5002997;28;20030;-55
2022/03/17 07:20:16;;;;;;;60.83;25.17;;;;;;;7.63;100.00;98844.94;5003659;28;20049;-55
2022/03/17 07:22:43;;;;;;;57.10;24.42;;;;;;;7.93;100.00;98840.13;5001741;28;20045;-55
2022/03/17 07:25:10;;;;;;;57.65;24.15;;;;;;;8.01;100.00;98850.38;5003707;28;20741;-56
2022/03/17 07:27:41;;;;;;;57.45;25.27;;;;;;;8.20;100.00;98843.16;4997922;28;20412;-56
2022/03/17 07:30:13;;;;;;;57.38;24.55;;;;;;;8.04;100.00;98850.34;5002027;28;20017;-56
2022/03/17 07:32:39;;;;;;;58.88;24.30;;;;;;;8.02;100.00;98852.13;4987863;28;20029;-55
2022/03/17 07:35:05;;;;;;;53.60;22.38;;;;;;;8.21;100.00;98848.28;5002753;28;20407;-54
2022/03/17 07:37:31;;;;;;;57.60;22.65;;;;;;;8.26;100.00;98846.47;5000291;28;20551;-55
2022/03/17 07:39:56;;;;;;;64.10;25.20;;;;;;;8.20;100.00;98851.78;4999730;28;20104;-55
2022/03/17 07:42:21;;;;;;;50.97;22.83;;;;;;;8.82;100.00;98848.03;5003164;28;20029;-55
2022/03/17 07:44:47;;;;;;;71.78;26.80;;;;;;;8.81;100.00;98846.34;5001428;28;20022;-55
2022/03/17 07:47:13;;;;;;;61.22;25.35;;;;;;;8.53;100.00;98852.09;5003428;28;20811;-53
2022/03/17 07:49:38;;;;;;;57.28;24.98;;;;;;;8.94;100.00;98845.19;4997930;28;20120;-54
2022/03/17 07:52:05;;;;;;;61.85;24.73;;;;;;;8.95;100.00;98844.31;5005085;28;20529;-54
2022/03/17 07:54:30;;;;;;;55.85;23.55;;;;;;;8.71;100.00;98847.41;5005157;28;20165;-54
2022/03/17 07:56:57;;;;;;;57.95;24.75;;;;;;;9.53;100.00;98843.91;4995243;28;20108;-55
2022/03/17 07:59:23;;;;;;;56.85;25.17;;;;;;;9.60;100.00;98846.34;5004618;28;20025;-54
2022/03/17 08:01:49;;;;;;;54.53;25.08;;;;;;;9.67;100.00;98847.06;5003521;28;20033;-55
2022/03/17 08:04:15;;;;;;;54.30;25.25;;;;;;;9.48;100.00;98845.75;5004419;28;20057;-53
2022/03/17 08:06:41;;;;;;;57.20;27.58;;;;;;;9.06;100.00;98850.16;4998969;28;20034;-55
2022/03/17 08:09:06;;;;;;;59.10;25.40;;;;;;;9.20;100.00;98844.63;5004675;28;20034;-56
2022/03/17 08:11:31;;;;;;;55.17;25.38;;;;;;;9.33;100.00;98849.56;5001374;28;20415;-56
2022/03/17 08:13:57;;;;;;;64.78;26.58;;;;;;;8.97;100.00;98845.16;5003383;28;20052;-55
2022/03/17 08:16:22;;;;;;;58.58;25.98;;;;;;;9.24;100.00;98848.91;5002284;28;20022;-56
2022/03/17 08:18:49;;;;;;;54.13;24.15;;;;;;;9.60;100.00;98850.69;5001997;28;20026;-55
2022/03/17 08:21:15;;;;;;;61.15;25.88;;;;;;;9.27;100.00;98847.97;5000690;28;20013;-54
2022/03/17 08:23:40;;;;;;;56.95;25.83;;;;;;;9.87;100.00;98848.31;4997080;28;20033;-55
2022/03/17 08:26:05;;;;;;;52.53;24.58;;;;;;;9.80;100.00;98858.91;5000899;28;20076;-56
2022/03/17 08:28:31;;;;;;;54.33;24.33;;;;;;;9.37;100.00;98864.22;5001326;28;20025;-55
2022/03/17 08:30:56;;;;;;;57.72;25.73;;;;;;;9.23;100.00;98867.16;5002255;28;20037;-56
2022/03/17 08:33:23;;;;;;;55.13;22.70;;;;;;;9.83;100.00;98869.25;5002021;28;20523;-55
2022/03/17 08:35:48;;;;;;;50.83;24.75;;;;;;;9.63;100.00;98874.94;5001029;28;20033;-54
2022/03/17 08:38:14;;;;;;;64.15;25.58;;;;;;;9.57;100.00;98876.81;5002531;28;20032;-53
2022/03/17 08:40:40;;;;;;;52.85;21.65;;;;;;;9.95;100.00;98867.25;5002172;28;20514;-55
2022/03/17 08:43:07;;;;;;;46.30;20.02;;;;;;;10.12;100.00;98874.63;4998104;28;20022;-54
2022/03/17 08:51:01;;;;;;;54.17;22.25;;;;;;;10.33;100.00;98883.69;5004565;28;20663;-55
2022/03/17 08:53:26;;;;;;;51.13;23.27;;;;;;;10.63;100.00;98882.03;5001876;28;20029;-54
2022/03/17 08:55:52;;;;;;;48.70;22.77;;;;;;;11.04;100.00;98881.75;5001587;28;20025;-55
2022/03/17 08:58:17;;;;;;;47.97;21.85;;;;;;;10.98;100.00;98893.25;5002323;28;20447;-56
2022/03/17 09:00:44;;;;;;;56.60;23.90;;;;;;;10.57;100.00;98893.47;5000821;28;20521;-55
2022/03/17 09:03:09;;;;;;;45.10;20.35;;;;;;;11.50;100.00;98894.31;5004069;28;20085;-54
2022/03/17 09:05:35;;;;;;;45.78;22.17;;;;;;;11.24;100.00;98905.53;5002733;28;20048;-55
2022/03/17 09:08:07;;;;;;;47.83;22.33;;;;;;;10.85;100.00;98908.38;5006278;28;20547;-55
2022/03/17 09:10:35;;;;;;;52.15;25.17;;;;;;;10.53;100.00;98911.84;5008813;28;20044;-55
2022/03/17 09:13:07;;;;;;;51.55;24.05;;;;;;;11.19;100.00;98905.69;5005298;28;20037;-55
2022/03/17 09:15:37;;;;;;;52.70;23.70;;;;;;;10.72;100.00;98910.47;5004697;28;20042;-54
2022/03/17 09:18:03;;;;;;;50.78;24.08;;;;;;;11.03;100.00;98901.81;5008783;28;20038;-56
2022/03/17 09:20:28;;;;;;;55.25;25.23;;;;;;;11.28;100.00;98901.94;5006572;28;20083;-55
2022/03/17 09:22:56;;;;;;;50.03;23.90;;;;;;;11.56;100.00;98901.09;5006622;28;20029;-55
2022/03/17 09:25:23;;;;;;;52.25;24.95;;;;;;;11.54;100.00;98897.69;5003267;28;20050;-55
2022/03/17 09:27:52;;;;;;;56.00;25.35;;;;;;;11.75;100.00;98906.63;5005913;28;20026;-57
2022/03/17 09:30:18;;;;;;;51.20;24.73;;;;;;;11.48;100.00;98906.56;5004280;28;20705;-55
2022/03/17 09:32:45;;;;;;;43.17;19.45;;;;;;;12.58;100.00;98903.94;5006382;28;20619;-55
2022/03/17 09:35:11;;;;;;;51.60;24.58;;;;;;;11.89;100.00;98904.44;5005221;28;20025;-55
2022/03/17 09:37:37;;;;;;;55.38;25.27;;;;;;;11.85;100.00;98896.72;5007987;28;20029;-54
2022/03/17 09:40:02;;;;;;;48.92;22.90;;;;;;;11.95;100.00;98903.41;5003622;28;20031;-54
2022/03/17 09:42:28;;;;;;;56.78;25.83;;;;;;;11.32;100.00;98898.34;5003469;28;20030;-53
2022/03/17 09:44:53;;;;;;;57.45;24.92;;;;;;;12.14;100.00;98901.91;5007150;28;20033;-53
2022/03/17 09:47:20;;;;;;;49.20;24.23;;;;;;;11.92;100.00;98904.34;5003079;28;20029;-54
2022/03/17 09:49:47;;;;;;;48.88;23.00;;;;;;;12.96;98.45;98898.22;5003471;28;20622;-55
2022/03/17 09:52:15;;;;;;;56.22;25.27;;;;;;;11.66;100.00;98910.38;5003192;28;20060;-55
2022/03/17 09:54:41;;;;;;;47.83;22.05;;;;;;;12.89;99.02;98905.47;5001273;28;20034;-53
2022/03/17 09:57:07;;;;;;;51.88;25.00;;;;;;;11.18;100.00;98910.94;5002830;28;20058;-55
2022/03/17 09:59:32;;;;;;;44.47;21.23;;;;;;;12.98;96.05;98901.66;5003489;28;20022;-55
2022/03/17 10:01:59;;;;;;;48.15;23.08;;;;;;;12.76;95.48;98912.91;5004039;28;20365;-55
2022/03/17 10:04:24;;;;;;;53.75;24.38;;;;;;;12.48;95.22;98916.47;5002758;28;20025;-56
2022/03/17 10:06:50;;;;;;;42.45;17.88;;;;;;;13.41;96.48;98914.03;4999829;28;20112;-54
2022/03/17 10:09:16;;;;;;;44.33;22.48;;;;;;;12.92;91.83;98924.53;5004527;28;20642;-55
2022/03/17 10:11:42;;;;;;;44.90;22.02;;;;;;;12.48;95.67;98923.44;5006537;28;20879;-55
2022/03/17 10:14:09;;;;;;;42.75;22.83;;;;;;;13.40;86.83;98924.56;5003264;28;20018;-55
2022/03/17 10:16:36;;;;;;;50.67;24.70;;;;;;;13.25;82.98;98926.84;5006357;28;20029;-56
2022/03/17 10:19:03;;;;;;;44.90;22.27;;;;;;;13.04;82.83;98922.38;5004094;28;20150;-55
2022/03/17 10:21:29;;;;;;;45.95;20.83;;;;;;;13.77;80.77;98918.78;5006224;28;20026;-54
2022/03/17 10:23:56;;;;;;;44.65;20.85;;;;;;;13.89;76.28;98925.31;5002384;28;20029;-54
2022/03/17 10:26:41;;;;;;;42.97;20.25;;;;;;;13.16;79.17;98927.19;5005035;28;20718;-54
2022/03/17 10:29:19;;;;;;;44.67;22.10;;;;;;;13.18;76.86;98924.47;5008691;28;20033;-56
2022/03/17 10:32:05;;;;;;;42.03;20.63;;;;;;;13.37;78.11;98924.72;5003450;28;20025;-54
2022/03/17 10:34:36;;;;;;;45.53;21.30;;;;;;;13.41;76.21;98931.53;5001655;28;20034;-55
2022/03/17 10:37:18;;;;;;;42.67;21.38;;;;;;;13.55;82.65;98928.41;5002190;28;20029;-55
2022/03/17 10:39:46;;;;;;;47.72;20.58;;;;;;;13.19;71.74;98927.06;5000367;28;20038;-56
2022/03/17 10:42:13;;;;;;;43.50;18.90;;;;;;;13.83;76.42;98925.56;5004294;28;20040;-56
2022/03/17 10:44:40;;;;;;;37.78;19.45;;;;;;;13.49;77.42;98918.97;5001280;28;20037;-54
2022/03/17 10:47:06;;;;;;;43.50;20.02;;;;;;;13.73;76.56;98918.94;5000534;28;20588;-56
2022/03/17 10:49:31;;;;;;;40.17;18.80;;;;;;;13.57;77.86;98924.81;4999278;28;20593;-52
2022/03/17 10:51:57;;;;;;;40.67;18.90;;;;;;;13.24;71.65;98925.13;4998734;28;20033;-57
2022/03/17 10:54:24;;;;;;;38.60;16.67;;;;;;;13.26;71.13;98925.91;5003776;28;20061;-56
2022/03/17 10:57:02;;;;;;;59.95;20.17;;;;;;;13.48;68.89;98922.53;4998016;28;20085;-56
2022/03/17 10:59:44;;;;;;;38.28;18.35;;;;;;;13.23;64.87;98928.69;5001881;28;20156;-56
2022/03/17 11:02:11;;;;;;;39.92;17.60;;;;;;;13.28;65.66;98921.47;5006270;28;20025;-56
2022/03/17 11:04:38;;;;;;;37.95;16.92;;;;;;;13.29;66.35;98925.81;5002714;28;20041;-55
2022/03/17 11:07:13;;;;;;;45.67;17.77;;;;;;;12.49;64.68;98926.03;5001493;28;20609;-56
2022/03/17 11:09:39;;;;;;;40.97;18.10;;;;;;;12.84;68.52;98921.31;5002457;28;20626;-56
2022/03/17 11:12:09;;;;;;;38.60;17.73;;;;;;;12.68;67.68;98930.63;5003054;28;20035;-56
2022/03/17 11:14:46;;;;;;;36.38;16.20;;;;;;;13.43;66.46;98929.72;4999921;28;20022;-57
2022/03/17 11:17:16;;;;;;;38.08;16.55;;;;;;;13.59;64.01;98925.59;5003676;28;20566;-55
2022/03/17 11:19:45;;;;;;;39.45;16.92;;;;;;;13.72;64.06;98923.34;5002189;28;20068;-56
2022/03/17 11:22:14;;;;;;;42.35;16.52;;;;;;;13.28;63.47;98931.94;5005051;28;20025;-57
2022/03/17 11:24:40;;;;;;;46.17;17.52;;;;;;;13.12;63.87;98922.94;5001809;28;20018;-54
2022/03/17 11:27:15;;;;;;;39.17;17.30;;;;;;;13.65;62.39;98925.34;4999428;28;20035;-55
2022/03/17 11:29:45;;;;;;;38.35;16.52;;;;;;;13.78;66.75;98927.50;5001734;28;20078;-54